General Aviation Weather

Text Reports

Enter one or more of the following location identifiers separated by a space:

Zip Code, Four-Character ICAO or Three-Character IATA airport codes.

METAR - Aviation Routine Weather Report
KHCD - Hutchinson, Minnesota
Updated at 5:12 PM GMT on August 23, 2014 (12:12 PM CDT):
METAR KHCD 231712Z AUTO 05006KT 2 1/2SM BR OVC003 21/21 A2997 RMK AO2 T02100206
TAF - Terminal Area Forecast
KHCD - Hutchinson, Minnesota
Updated at 5:12 PM GMT on August 23, 2014 (12:12 PM CDT):
No TAF is currently available for this location.
Decoded:
No decoded TAF is available.
PIREP - Pilot Weather Report
KHCD - Hutchinson, Minnesota
Updated at 5:12 PM GMT on August 23, 2014 (12:12 PM CDT):
No PIREP is currently available for this location.
AIRMET - Airmens Meteorological Information
KHCD - Hutchinson, Minnesota
Updated at 5:12 PM GMT on August 23, 2014 (12:12 PM CDT):
No AIRMET is currently available for this location.
SIGMET - Significant Meteorological Information
KHCD - Hutchinson, Minnesota
Updated at 5:12 PM GMT on August 23, 2014 (12:12 PM CDT):
No SIGMET is currently available for this location.
NOTAM - Notice to Airmen
KHCD - Hutchinson, Minnesota
Updated at 5:12 PM GMT on August 23, 2014 (12:12 PM CDT):
No NOTAM is currently available for this location.
Forecast Area
KHCD - Hutchinson, Minnesota
Updated at 5:12 PM GMT on August 23, 2014 (12:12 PM CDT):
No NOTAM is currently available for this location.
Aviation Weather Maps